This is the latest recevied weather packets stored in our database for station/object K1WJY. If no packets are shown the sender has not sent any weather packets the latest 10 day(s).
| Time | Temp. | Humidity | Pressure | Rain* | Wind** | Luminosity | Snow |
|---|---|---|---|---|---|---|---|
| 1787769338 | 29.44° C | 50% | 1018.2 hPa | 0 mm | - | 689 W/m² | - |
| 1787769034 | 28.33° C | 54% | 1018 hPa | 0 mm | - | 672 W/m² | - |
| 1787768729 | 28.33° C | 52% | 1018.1 hPa | 0 mm | - | 638 W/m² | - |
| 1787768425 | 28.89° C | 52% | 1017.9 hPa | 0 mm | - | 691 W/m² | - |
| 1787768121 | 28.33° C | 52% | 1018 hPa | 0 mm | - | 683 W/m² | - |
| 1787767821 | 28.89° C | 52% | 1017.8 hPa | 0 mm | - | 166 W/m² | - |
| 1787767517 | 28.89° C | 52% | 1017.9 hPa | 0 mm | - | 738 W/m² | - |
| 1787767216 | 27.78° C | 55% | 1017.9 hPa | 0 mm | - | 754 W/m² | - |
| 1787766915 | 27.78° C | 57% | 1018.1 hPa | 0 mm | - | 769 W/m² | - |
| 1787766609 | 28.33° C | 53% | 1018 hPa | 0 mm | - | 379 W/m² | - |
| 1787766308 | 28.89° C | 53% | 1017.9 hPa | 0 mm | - | 726 W/m² | - |
| 1787766003 | 28.33° C | 54% | 1018 hPa | 0 mm | - | 761 W/m² | - |
| 1787765700 | 27.78° C | 55% | 1018.2 hPa | 0 mm | - | 711 W/m² | - |
| 1787765395 | 28.89° C | 52% | 1018.2 hPa | 0 mm | - | 701 W/m² | - |
| 1787765089 | 27.78° C | 55% | 1018.2 hPa | 0 mm | - | 738 W/m² | - |
| 1787764789 | 27.78° C | 54% | 1018.4 hPa | 0 mm | - | 745 W/m² | - |
| 1787764485 | 27.22° C | 59% | 1018.5 hPa | 0 mm | - | 614 W/m² | - |
| 1787764180 | 27.78° C | 56% | 1018.4 hPa | 0 mm | - | 714 W/m² | - |
| 1787763876 | 27.78° C | 55% | 1018.2 hPa | 0 mm | - | 687 W/m² | - |
| 1787763570 | 27.78° C | 54% | 1018.2 hPa | 0 mm | - | 722 W/m² | - |
| 1787763266 | 27.78° C | 54% | 1018.3 hPa | 0 mm | - | 732 W/m² | - |
| 1787762966 | 27.78° C | 55% | 1018.5 hPa | 0 mm | - | 741 W/m² | - |
| 1787762666 | 27.22° C | 55% | 1018.4 hPa | 0 mm | - | 766 W/m² | - |
| 1787762364 | 27.22° C | 54% | 1018.4 hPa | 0 mm | - | 732 W/m² | - |
| 1787762062 | 26.67° C | 57% | 1018.3 hPa | 0 mm | - | 689 W/m² | - |
* Rain latest hour (hover to see other rain measurements)
** Current wind speed in m/s (hover to see current wind gust speed)